createdAt,value
2023-01-03T00:01:24.599Z,9.69
2023-01-03T00:03:56.952Z,9.70
2023-01-03T00:06:33.808Z,9.67
2023-01-03T00:09:03.066Z,9.67
2023-01-03T00:11:52.626Z,9.61
2023-01-03T00:14:23.505Z,9.63
2023-01-03T00:16:56.182Z,9.66
2023-01-03T00:19:24.769Z,9.66
2023-01-03T00:21:52.684Z,9.65
2023-01-03T00:24:20.804Z,9.63
2023-01-03T00:26:48.610Z,9.61
2023-01-03T00:29:17.011Z,9.66
2023-01-03T00:31:44.458Z,9.59
2023-01-03T00:34:13.076Z,9.60
2023-01-03T00:36:41.062Z,9.59
2023-01-03T00:39:09.198Z,9.58
2023-01-03T00:41:36.547Z,9.54
2023-01-03T00:44:04.534Z,9.56
2023-01-03T00:46:32.759Z,9.57
2023-01-03T00:49:00.385Z,9.61
2023-01-03T00:51:30.786Z,9.60
2023-01-03T00:54:00.180Z,9.63
2023-01-03T00:56:31.799Z,9.62
2023-01-03T00:58:59.198Z,9.64
2023-01-03T01:01:42.494Z,9.69
2023-01-03T01:04:17.514Z,9.65
2023-01-03T01:06:56.313Z,9.64
2023-01-03T01:09:26.932Z,9.62
2023-01-03T01:11:54.550Z,9.65
2023-01-03T01:14:24.217Z,9.66
2023-01-03T01:17:00.076Z,9.65
2023-01-03T01:19:34.400Z,9.65
2023-01-03T01:22:02.043Z,9.60
2023-01-03T01:24:29.751Z,9.58
2023-01-03T01:26:57.245Z,9.58
2023-01-03T01:29:25.186Z,9.64
2023-01-03T01:31:53.028Z,9.59
2023-01-03T01:34:20.575Z,9.60
2023-01-03T01:36:48.428Z,9.55
2023-01-03T01:39:21.831Z,9.59
2023-01-03T01:42:18.314Z,9.59
2023-01-03T01:45:00.468Z,9.56
2023-01-03T01:47:32.741Z,9.58
2023-01-03T01:50:29.623Z,9.57
2023-01-03T01:53:02.771Z,9.63
2023-01-03T01:55:37.155Z,9.62
2023-01-03T01:58:07.262Z,9.62
2023-01-03T02:00:36.301Z,9.55
2023-01-03T02:03:04.340Z,9.54
2023-01-03T02:05:35.195Z,9.58
2023-01-03T02:08:03.205Z,9.62
2023-01-03T02:11:03.359Z,9.63
2023-01-03T02:13:36.553Z,9.62
2023-01-03T02:16:24.199Z,9.63
2023-01-03T02:19:22.635Z,9.60
2023-01-03T02:22:20.053Z,9.59
2023-01-03T02:25:19.949Z,9.66
2023-01-03T02:28:08.936Z,9.64
2023-01-03T02:31:00.829Z,9.66
2023-01-03T02:33:28.169Z,9.64
2023-01-03T02:36:08.147Z,9.56
2023-01-03T02:39:04.512Z,9.57
2023-01-03T02:41:45.729Z,9.61
2023-01-03T02:44:25.952Z,9.63
2023-01-03T02:47:03.120Z,9.60
2023-01-03T02:49:38.289Z,9.59
2023-01-03T02:52:11.368Z,9.62
2023-01-03T02:54:54.629Z,9.65
2023-01-03T02:57:32.058Z,9.64
2023-01-03T03:00:08.877Z,9.60
2023-01-03T03:02:39.931Z,9.58
2023-01-03T03:05:14.490Z,9.61
2023-01-03T03:07:42.181Z,9.64
2023-01-03T03:10:30.135Z,9.63
2023-01-03T03:13:39.969Z,9.60
2023-01-03T03:16:44.224Z,9.52
2023-01-03T03:19:55.353Z,9.57
2023-01-03T03:22:53.026Z,9.60
2023-01-03T03:25:26.196Z,9.56
2023-01-03T03:28:18.656Z,9.59
2023-01-03T03:30:47.960Z,9.59
2023-01-03T03:33:17.861Z,9.58
2023-01-03T03:35:56.623Z,9.57
2023-01-03T03:38:31.871Z,9.55
2023-01-03T03:41:52.057Z,9.58
2023-01-03T03:45:00.937Z,9.53
2023-01-03T03:47:46.029Z,9.57
2023-01-03T03:50:29.407Z,9.57
2023-01-03T03:53:04.899Z,9.57
2023-01-03T03:55:41.569Z,9.58
2023-01-03T03:58:13.926Z,9.51
2023-01-03T04:00:43.114Z,9.49
2023-01-03T04:03:11.369Z,9.53
2023-01-03T04:05:48.532Z,9.58
2023-01-03T04:08:16.517Z,9.57
2023-01-03T04:10:44.192Z,9.50
2023-01-03T04:13:11.722Z,9.53
2023-01-03T04:15:39.339Z,9.57
2023-01-03T04:18:07.057Z,9.54
2023-01-03T04:20:34.485Z,9.57
2023-01-03T04:23:01.847Z,9.57
2023-01-03T04:25:29.415Z,9.55
2023-01-03T04:27:57.426Z,9.56
2023-01-03T04:30:24.850Z,9.54
2023-01-03T04:32:52.230Z,9.58
2023-01-03T04:35:19.641Z,9.55
2023-01-03T04:37:47.055Z,9.53
2023-01-03T04:40:14.796Z,9.56
2023-01-03T04:43:00.881Z,9.53
2023-01-03T04:45:28.367Z,9.53
2023-01-03T04:47:56.173Z,9.55
2023-01-03T04:50:23.627Z,9.57
2023-01-03T04:52:51.120Z,9.54
2023-01-03T04:55:18.672Z,9.53
2023-01-03T04:57:46.183Z,9.48
2023-01-03T05:00:14.170Z,9.56
2023-01-03T05:02:41.895Z,9.57
2023-01-03T05:05:10.246Z,9.54
2023-01-03T05:07:37.667Z,9.54
2023-01-03T05:10:05.652Z,9.50
2023-01-03T05:12:33.070Z,9.51
2023-01-03T05:15:00.792Z,9.51
2023-01-03T05:17:28.338Z,9.54
2023-01-03T05:20:14.627Z,9.52
2023-01-03T05:23:00.739Z,9.48
2023-01-03T05:25:46.379Z,9.41
2023-01-03T05:28:17.325Z,9.51
2023-01-03T05:30:45.186Z,9.47
2023-01-03T05:33:12.714Z,9.46
2023-01-03T05:35:40.124Z,9.48
2023-01-03T05:38:07.609Z,9.51
2023-01-03T05:40:40.905Z,9.51
2023-01-03T05:43:09.360Z,9.55
2023-01-03T05:45:37.908Z,9.48
2023-01-03T05:48:06.585Z,9.51
2023-01-03T05:50:34.175Z,9.55
2023-01-03T05:53:01.951Z,9.59
2023-01-03T05:55:29.329Z,9.60
2023-01-03T05:57:56.798Z,9.53
2023-01-03T06:00:24.172Z,9.52
2023-01-03T06:02:51.768Z,9.49
2023-01-03T06:05:19.261Z,9.52
2023-01-03T06:07:46.719Z,9.53
2023-01-03T06:10:14.181Z,9.53
2023-01-03T06:12:41.615Z,9.53
2023-01-03T06:15:09.650Z,9.56
2023-01-03T06:17:55.272Z,9.60
2023-01-03T06:20:23.164Z,9.61
2023-01-03T06:22:52.340Z,9.64
2023-01-03T06:25:19.814Z,9.58
2023-01-03T06:27:47.291Z,9.64
2023-01-03T06:30:15.848Z,9.63
2023-01-03T06:32:44.954Z,9.60
2023-01-03T06:35:13.071Z,9.58
2023-01-03T06:37:41.264Z,9.61
2023-01-03T06:40:09.367Z,9.60
2023-01-03T06:42:39.624Z,9.61
2023-01-03T06:45:26.199Z,9.65
2023-01-03T06:48:12.192Z,9.68
2023-01-03T06:51:02.777Z,9.67
2023-01-03T06:53:36.524Z,9.65
2023-01-03T06:56:05.654Z,9.63
2023-01-03T06:58:33.426Z,9.58
2023-01-03T07:01:03.857Z,9.64
2023-01-03T07:03:32.457Z,9.61
2023-01-03T07:05:59.955Z,9.59
2023-01-03T07:08:27.402Z,9.63
2023-01-03T07:10:55.345Z,9.63
2023-01-03T07:13:41.731Z,9.70
2023-01-03T07:16:18.231Z,9.69
2023-01-03T07:18:52.831Z,9.72
2023-01-03T07:21:24.546Z,9.71
2023-01-03T07:23:56.845Z,9.74
2023-01-03T07:26:25.446Z,9.73
2023-01-03T07:28:53.008Z,9.67
2023-01-03T07:31:20.665Z,9.74
2023-01-03T07:33:48.224Z,9.70
2023-01-03T07:36:16.819Z,9.78
2023-01-03T07:38:45.713Z,9.81
2023-01-03T07:41:15.068Z,9.86
2023-01-03T07:43:45.247Z,9.83
2023-01-03T07:46:24.429Z,9.87
2023-01-03T07:48:55.259Z,9.88
2023-01-03T07:51:22.993Z,9.86
2023-01-03T07:53:52.434Z,9.89
2023-01-03T07:56:21.745Z,9.89
2023-01-03T07:58:49.653Z,9.96
2023-01-03T08:01:19.643Z,9.99
2023-01-03T08:03:47.435Z,10.08
2023-01-03T08:06:18.314Z,10.01
2023-01-03T08:09:06.584Z,10.00
2023-01-03T08:11:52.893Z,10.11
2023-01-03T08:14:25.716Z,10.14
2023-01-03T08:16:55.323Z,10.19
2023-01-03T08:19:24.492Z,10.13
2023-01-03T08:21:52.496Z,10.07
2023-01-03T08:24:20.134Z,10.09
2023-01-03T08:26:47.622Z,10.17
2023-01-03T08:29:15.402Z,10.21
2023-01-03T08:31:50.497Z,10.23
2023-01-03T08:34:25.385Z,10.21
2023-01-03T08:37:01.617Z,10.25
2023-01-03T08:39:34.794Z,10.23
2023-01-03T08:42:05.548Z,10.27
2023-01-03T08:44:33.283Z,10.25
2023-01-03T08:47:07.973Z,10.22
2023-01-03T08:49:36.690Z,10.21
2023-01-03T08:52:04.578Z,10.28
2023-01-03T08:54:32.315Z,10.35
2023-01-03T08:56:59.818Z,10.37
2023-01-03T08:59:27.792Z,10.44
2023-01-03T09:02:01.403Z,10.43
2023-01-03T09:04:29.055Z,10.48
2023-01-03T09:06:56.870Z,10.58
2023-01-03T09:09:24.242Z,10.65
2023-01-03T09:11:51.597Z,10.62
2023-01-03T09:14:19.008Z,10.68
2023-01-03T09:16:49.364Z,10.75
2023-01-03T09:19:17.387Z,10.78
2023-01-03T09:21:44.917Z,10.80
2023-01-03T09:24:12.479Z,10.82
2023-01-03T09:26:39.888Z,10.87
2023-01-03T09:29:07.332Z,10.86
2023-01-03T09:31:35.394Z,10.80
2023-01-03T09:34:05.355Z,10.76
2023-01-03T09:36:33.130Z,10.77
2023-01-03T09:39:00.641Z,10.70
2023-01-03T09:41:28.600Z,10.72
2023-01-03T09:44:05.079Z,10.75
2023-01-03T09:46:33.651Z,10.75
2023-01-03T09:49:03.820Z,10.82
2023-01-03T09:52:00.184Z,10.83
2023-01-03T09:54:58.243Z,11.01
2023-01-03T09:57:49.750Z,11.01
2023-01-03T10:00:42.812Z,11.01
2023-01-03T10:03:37.155Z,10.99
2023-01-03T10:06:07.203Z,11.04
2023-01-03T10:08:57.454Z,11.12
2023-01-03T10:11:55.415Z,11.22
2023-01-03T10:14:22.741Z,11.40
2023-01-03T10:17:22.128Z,11.44
2023-01-03T10:20:04.631Z,11.35
2023-01-03T10:22:33.199Z,11.41
2023-01-03T10:25:21.714Z,11.48
2023-01-03T10:27:58.697Z,11.54
2023-01-03T10:30:38.192Z,11.50
2023-01-03T10:33:38.795Z,11.51
2023-01-03T10:36:08.012Z,11.50
2023-01-03T10:38:44.883Z,11.57
2023-01-03T10:41:29.821Z,11.68
2023-01-03T10:43:59.680Z,11.70
2023-01-03T10:46:31.104Z,11.50
2023-01-03T10:49:27.392Z,11.33
2023-01-03T10:52:12.080Z,11.32
2023-01-03T10:54:42.542Z,11.39
2023-01-03T10:57:40.502Z,11.38
2023-01-03T11:00:28.302Z,11.44
2023-01-03T11:03:02.766Z,11.45
2023-01-03T11:05:30.267Z,11.47
2023-01-03T11:08:03.488Z,11.50
2023-01-03T11:11:01.235Z,11.35
2023-01-03T11:13:39.962Z,11.50
2023-01-03T11:16:19.139Z,11.43
2023-01-03T11:19:01.501Z,11.42
2023-01-03T11:21:39.409Z,11.34
2023-01-03T11:24:27.243Z,11.41
2023-01-03T11:27:06.709Z,11.62
2023-01-03T11:29:59.162Z,11.52
2023-01-03T11:32:57.565Z,11.55
2023-01-03T11:35:46.509Z,11.58
2023-01-03T11:38:14.534Z,11.52
2023-01-03T11:40:46.299Z,11.55
2023-01-03T11:43:44.718Z,11.57
2023-01-03T11:46:33.810Z,11.52
2023-01-03T11:49:39.838Z,11.58
2023-01-03T11:52:10.203Z,11.48
2023-01-03T11:54:53.005Z,11.55
2023-01-03T11:57:57.541Z,11.49
2023-01-03T12:01:05.596Z,11.51
2023-01-03T12:03:51.329Z,11.54
2023-01-03T12:06:35.648Z,11.52
2023-01-03T12:09:18.341Z,11.59
2023-01-03T12:12:03.780Z,11.59
2023-01-03T12:14:47.474Z,11.72
2023-01-03T12:17:15.436Z,11.74
2023-01-03T12:19:48.909Z,11.74
2023-01-03T12:22:27.658Z,11.71
2023-01-03T12:25:05.523Z,11.76
2023-01-03T12:27:41.477Z,11.74
2023-01-03T12:30:24.334Z,11.84
2023-01-03T12:33:14.828Z,11.90
2023-01-03T12:36:02.759Z,11.84
2023-01-03T12:38:36.587Z,11.89
2023-01-03T12:41:23.836Z,11.66
2023-01-03T12:43:58.395Z,11.71
2023-01-03T12:46:36.125Z,11.70
2023-01-03T12:49:18.864Z,11.84
2023-01-03T12:51:46.341Z,11.92
2023-01-03T12:54:22.941Z,12.00
2023-01-03T12:56:55.044Z,12.01
2023-01-03T13:00:05.202Z,12.10
2023-01-03T13:02:58.188Z,12.02
2023-01-03T13:05:44.778Z,12.06
2023-01-03T13:08:24.708Z,12.03
2023-01-03T13:10:56.947Z,12.08
2023-01-03T13:13:24.558Z,12.09
2023-01-03T13:15:53.825Z,11.99
2023-01-03T13:18:21.163Z,12.02
2023-01-03T13:20:55.304Z,12.00
2023-01-03T13:23:41.013Z,11.98
2023-01-03T13:26:28.659Z,11.84
2023-01-03T13:29:34.384Z,11.78
2023-01-03T13:32:13.304Z,11.87
2023-01-03T13:34:40.695Z,11.74
2023-01-03T13:37:07.945Z,11.81
2023-01-03T13:40:01.542Z,11.77
2023-01-03T13:42:34.816Z,11.74
2023-01-03T13:45:11.095Z,11.72
2023-01-03T13:47:42.990Z,11.68
2023-01-03T13:50:24.876Z,11.71
2023-01-03T13:53:02.213Z,11.63
2023-01-03T13:55:54.788Z,11.59
2023-01-03T13:58:41.038Z,11.58
2023-01-03T14:01:20.323Z,11.53
2023-01-03T14:04:08.276Z,11.57
2023-01-03T14:06:54.702Z,11.50
2023-01-03T14:09:34.400Z,11.45
2023-01-03T14:12:32.739Z,11.48
2023-01-03T14:15:23.157Z,11.44
2023-01-03T14:17:57.875Z,11.42
2023-01-03T14:20:36.666Z,11.39
2023-01-03T14:23:48.306Z,11.43
2023-01-03T14:26:04.697Z,11.55
2023-01-03T14:28:34.216Z,11.50
2023-01-03T14:31:08.972Z,11.48
2023-01-03T14:33:56.863Z,11.51
2023-01-03T14:36:24.503Z,11.41
2023-01-03T14:38:55.447Z,11.39
2023-01-03T14:41:34.918Z,11.33
2023-01-03T14:44:09.354Z,11.33
2023-01-03T14:46:37.921Z,11.36
2023-01-03T14:49:14.433Z,11.42
2023-01-03T14:51:41.796Z,11.41
2023-01-03T14:54:16.599Z,11.45
2023-01-03T14:56:46.715Z,11.45
2023-01-03T14:59:21.613Z,11.43
2023-01-03T15:01:49.408Z,11.40
2023-01-03T15:04:19.447Z,11.38
2023-01-03T15:07:09.593Z,11.40
2023-01-03T15:09:40.405Z,11.37
2023-01-03T15:12:07.994Z,11.36
2023-01-03T15:14:39.253Z,11.33
2023-01-03T15:17:16.345Z,11.32
2023-01-03T15:19:52.884Z,11.32
2023-01-03T15:22:23.817Z,11.31
2023-01-03T15:25:08.689Z,11.29
2023-01-03T15:27:39.061Z,11.28
2023-01-03T15:30:20.663Z,11.31
2023-01-03T15:33:03.436Z,11.33
2023-01-03T15:35:40.684Z,11.28
2023-01-03T15:38:23.173Z,11.25
2023-01-03T15:40:51.067Z,11.20
2023-01-03T15:43:23.441Z,11.23
2023-01-03T15:46:03.466Z,11.22
2023-01-03T15:48:35.512Z,11.27
2023-01-03T15:51:04.110Z,11.26
2023-01-03T15:53:36.454Z,11.26
2023-01-03T15:56:24.733Z,11.23
2023-01-03T15:58:54.965Z,11.26
2023-01-03T16:01:24.365Z,11.24
2023-01-03T16:03:52.671Z,11.18
2023-01-03T16:06:20.227Z,11.22
2023-01-03T16:08:47.671Z,11.20
2023-01-03T16:11:22.989Z,11.23
2023-01-03T16:13:54.875Z,11.22
2023-01-03T16:16:26.315Z,11.26
2023-01-03T16:18:54.604Z,11.18
2023-01-03T16:21:22.684Z,11.22
2023-01-03T16:23:51.309Z,11.19
2023-01-03T16:26:19.234Z,11.14
2023-01-03T16:28:46.610Z,11.04
2023-01-03T16:31:20.149Z,11.23
2023-01-03T16:33:49.442Z,11.15
2023-01-03T16:36:38.002Z,11.08
2023-01-03T16:39:12.017Z,11.12
2023-01-03T16:41:39.373Z,11.09
2023-01-03T16:44:06.819Z,11.07
2023-01-03T16:46:36.098Z,10.99
2023-01-03T16:49:04.914Z,10.96
2023-01-03T16:51:35.353Z,11.01
2023-01-03T16:54:08.242Z,11.03
2023-01-03T16:56:35.605Z,10.99
2023-01-03T16:59:03.259Z,11.02
2023-01-03T17:01:30.731Z,11.07
2023-01-03T17:03:58.340Z,11.08
2023-01-03T17:06:37.886Z,11.01
2023-01-03T17:09:15.200Z,10.97
2023-01-03T17:11:43.779Z,10.93
2023-01-03T17:14:20.540Z,10.86
2023-01-03T17:16:49.372Z,10.83
2023-01-03T17:20:01.916Z,10.88
2023-01-03T17:22:20.000Z,10.93
2023-01-03T17:24:49.265Z,10.90
2023-01-03T17:27:27.818Z,10.94
2023-01-03T17:30:01.915Z,10.81
2023-01-03T17:32:30.192Z,10.75
2023-01-03T17:34:57.807Z,10.84
2023-01-03T17:37:25.968Z,10.77
2023-01-03T17:39:56.594Z,10.88
2023-01-03T17:42:26.514Z,10.77
2023-01-03T17:45:12.398Z,10.70
2023-01-03T17:48:01.341Z,10.78
2023-01-03T17:50:32.214Z,10.77
2023-01-03T17:53:01.961Z,10.63
2023-01-03T17:55:30.749Z,10.61
2023-01-03T17:58:01.511Z,10.62
2023-01-03T18:00:30.143Z,10.58
2023-01-03T18:03:00.491Z,10.55
2023-01-03T18:05:29.859Z,10.48
2023-01-03T18:08:00.294Z,10.52
2023-01-03T18:10:37.491Z,10.53
2023-01-03T18:13:20.943Z,10.49
2023-01-03T18:15:48.698Z,10.55
2023-01-03T18:18:18.369Z,10.55
2023-01-03T18:20:46.510Z,10.56
2023-01-03T18:23:19.857Z,10.56
2023-01-03T18:25:47.477Z,10.58
2023-01-03T18:28:20.500Z,10.49
2023-01-03T18:30:47.952Z,10.54
2023-01-03T18:33:15.410Z,10.46
2023-01-03T18:35:43.698Z,10.47
2023-01-03T18:38:25.008Z,10.57
2023-01-03T18:40:57.446Z,10.66
2023-01-03T18:43:29.701Z,10.55
2023-01-03T18:45:57.184Z,10.45
2023-01-03T18:48:24.677Z,10.40
2023-01-03T18:50:58.426Z,10.32
2023-01-03T18:53:31.134Z,10.34
2023-01-03T18:55:59.788Z,10.36
2023-01-03T18:58:34.081Z,10.37
2023-01-03T19:01:01.750Z,10.39
2023-01-03T19:03:32.072Z,10.34
2023-01-03T19:06:00.653Z,10.33
2023-01-03T19:08:32.458Z,10.41
2023-01-03T19:11:06.075Z,10.49
2023-01-03T19:13:50.816Z,10.41
2023-01-03T19:16:35.895Z,10.60
2023-01-03T19:19:04.928Z,10.56
2023-01-03T19:21:35.744Z,10.53
2023-01-03T19:24:05.469Z,10.59
2023-01-03T19:26:59.190Z,10.65
2023-01-03T19:29:36.671Z,10.56
2023-01-03T19:32:08.264Z,10.64
2023-01-03T19:34:35.619Z,10.63
2023-01-03T19:37:03.066Z,10.55
2023-01-03T19:39:36.801Z,10.46
2023-01-03T19:42:30.720Z,10.44
2023-01-03T19:45:00.391Z,10.39
2023-01-03T19:47:28.174Z,10.48
2023-01-03T19:50:23.236Z,10.41
2023-01-03T19:52:50.866Z,10.34
2023-01-03T19:55:18.216Z,10.49
2023-01-03T19:57:48.780Z,10.52
2023-01-03T20:00:20.383Z,10.44
2023-01-03T20:02:50.695Z,10.38
2023-01-03T20:05:21.614Z,10.31
2023-01-03T20:07:49.969Z,10.32
2023-01-03T20:10:23.387Z,10.36
2023-01-03T20:12:55.525Z,10.38
2023-01-03T20:15:26.075Z,10.42
2023-01-03T20:17:54.156Z,10.43
2023-01-03T20:20:23.147Z,10.37
2023-01-03T20:23:07.093Z,10.34
2023-01-03T20:25:53.759Z,10.33
2023-01-03T20:28:29.270Z,10.33
2023-01-03T20:31:00.954Z,10.29
2023-01-03T20:33:28.883Z,10.27
2023-01-03T20:36:14.255Z,10.28
2023-01-03T20:38:47.278Z,10.27
2023-01-03T20:41:16.917Z,10.29
2023-01-03T20:43:44.790Z,10.27
2023-01-03T20:46:20.105Z,10.22
2023-01-03T20:48:56.076Z,10.17
2023-01-03T20:51:24.589Z,10.07
2023-01-03T20:53:55.110Z,10.04
2023-01-03T20:56:23.620Z,10.03
2023-01-03T20:58:51.733Z,9.99
2023-01-03T21:01:19.372Z,9.93
2023-01-03T21:03:47.082Z,9.86
2023-01-03T21:06:23.121Z,9.82
2023-01-03T21:08:57.707Z,9.85
2023-01-03T21:11:25.224Z,9.89
2023-01-03T21:13:53.220Z,9.80
2023-01-03T21:16:36.589Z,9.81
2023-01-03T21:19:13.150Z,9.75
2023-01-03T21:21:45.273Z,9.78
2023-01-03T21:24:14.443Z,9.78
2023-01-03T21:26:42.131Z,9.81
2023-01-03T21:29:09.786Z,9.79
2023-01-03T21:31:39.031Z,9.74
2023-01-03T21:34:12.875Z,9.74
2023-01-03T21:36:40.199Z,9.78
2023-01-03T21:39:07.678Z,9.86
2023-01-03T21:41:55.914Z,9.81
2023-01-03T21:44:23.308Z,9.75
2023-01-03T21:46:50.671Z,9.75
2023-01-03T21:49:18.222Z,9.80
2023-01-03T21:51:45.663Z,9.80
2023-01-03T21:54:12.983Z,9.82
2023-01-03T21:56:45.728Z,9.83
2023-01-03T21:59:17.326Z,9.84
2023-01-03T22:02:04.628Z,9.85
2023-01-03T22:04:32.750Z,9.83
2023-01-03T22:07:03.045Z,9.79
2023-01-03T22:09:50.472Z,9.81
2023-01-03T22:12:19.495Z,9.80
2023-01-03T22:14:47.519Z,9.81
2023-01-03T22:17:16.771Z,9.88
2023-01-03T22:19:44.285Z,9.81
2023-01-03T22:22:11.683Z,9.81
2023-01-03T22:24:39.147Z,9.80
2023-01-03T22:27:06.591Z,9.77
2023-01-03T22:29:33.963Z,9.77
2023-01-03T22:32:01.462Z,9.69
2023-01-03T22:34:29.093Z,9.70
2023-01-03T22:36:56.523Z,9.77
2023-01-03T22:39:23.952Z,9.72
2023-01-03T22:41:51.312Z,9.85
2023-01-03T22:44:18.747Z,9.78
2023-01-03T22:46:46.029Z,9.70
2023-01-03T22:49:13.497Z,9.69
2023-01-03T22:51:40.904Z,9.72
2023-01-03T22:54:08.303Z,9.63
2023-01-03T22:56:35.631Z,9.55
2023-01-03T22:59:02.993Z,9.59
2023-01-03T23:01:31.611Z,9.55
2023-01-03T23:04:01.157Z,9.57
2023-01-03T23:06:31.461Z,9.63
2023-01-03T23:08:59.921Z,9.64
2023-01-03T23:11:49.793Z,9.43
2023-01-03T23:14:21.784Z,9.41
2023-01-03T23:16:51.326Z,9.26
2023-01-03T23:19:21.644Z,9.21
2023-01-03T23:21:49.144Z,9.17
2023-01-03T23:24:19.513Z,9.22
2023-01-03T23:26:46.887Z,9.19
2023-01-03T23:29:15.024Z,9.20
2023-01-03T23:31:43.004Z,9.18
2023-01-03T23:34:12.177Z,9.28
2023-01-03T23:36:42.820Z,9.32
2023-01-03T23:39:13.011Z,9.36
2023-01-03T23:41:40.963Z,9.17
2023-01-03T23:44:08.715Z,9.27
2023-01-03T23:46:36.181Z,9.26
2023-01-03T23:49:03.916Z,9.18
2023-01-03T23:51:31.418Z,9.11
2023-01-03T23:53:59.421Z,9.03
2023-01-03T23:56:26.859Z,9.13
2023-01-03T23:58:54.292Z,9.16
